Time;durP1;ratioP1;P1;durP2;ratioP2;P2;SDS_P1;SDS_P2;PMS_P1;PMS_P2;Temp;Humidity;BMP_temperature;BMP_pressure;BME280_temperature;BME280_humidity;BME280_pressure;Samples;Min_cycle;Max_cycle;Signal;HPM_P1;HPM_P2
2024/03/09 06:00:31;;;;;;;;;;;;;;;;;;5917337;23;20773;-46
2024/03/09 06:02:57;;;;;;;;;;;;;;;;;;4991662;28;19920;-45
2024/03/09 06:05:23;;;;;;;;;;;;;;;;;;4992165;28;20364;-45
2024/03/09 06:07:48;;;;;;;;;;;;;;;;;;4991985;28;20004;-46
2024/03/09 06:10:16;;;;;;;;;;;;;;;;;;4992337;28;19956;-46
2024/03/09 06:12:42;;;;;;;;;;;;;;;;;;4974084;28;20016;-46
2024/03/09 06:15:08;;;;;;;;;;;;;;;;;;4991553;28;20000;-46
2024/03/09 06:17:34;;;;;;;;;;;;;;;;;;4992695;28;19957;-45
2024/03/09 06:20:03;;;;;;;;;;;;;;;;;;4992905;28;20382;-48
2024/03/09 06:22:30;;;;;;;;;;;;;;;;;;4992719;28;19957;-49
2024/03/09 06:24:56;;;;;;;;;;;;;;;;;;4991922;28;19910;-46
2024/03/09 06:27:21;;;;;;;;;;;;;;;;;;4992425;28;20021;-47
2024/03/09 06:29:48;;;;;;;;;;;;;;;;;;4992701;28;19917;-47
2024/03/09 06:32:14;;;;;;;;;;;;;;;;;;4992845;28;19910;-46
2024/03/09 06:34:44;;;;;;;;;;;;;;;;;;4991844;28;19910;-45
2024/03/09 06:37:10;;;;;;;;;;;;;;;;;;4992441;28;19914;-49
2024/03/09 06:39:38;;;;;;;;;;;;;;;;;;4992530;28;19956;-47
2024/03/09 06:42:05;;;;;;;;;;;;;;;;;;4991906;28;19917;-46
2024/03/09 06:44:32;;;;;;;;;;;;;;;;;;4991720;28;19914;-49
2024/03/09 06:46:57;;;;;;;;;;;;;;;;;;4992074;28;19933;-47
2024/03/09 06:49:25;;;;;;;;;;;;;;;;;;4992123;28;20423;-48
2024/03/09 06:51:50;;;;;;;;;;;;;;;;;;4992302;28;19906;-46
2024/03/09 06:54:17;;;;;;;;;;;;;;;;;;4991266;28;19910;-48
2024/03/09 06:56:43;;;;;;;;;;;;;;;;;;4992263;28;19921;-47
2024/03/09 06:59:09;;;;;;;;;;;;;;;;;;4991843;28;19918;-49
2024/03/09 07:01:36;;;;;;;;;;;;;;;;;;4992120;28;19918;-49
2024/03/09 07:04:03;;;;;;;;;;;;;;;;;;4991609;28;19925;-46
2024/03/09 07:06:29;;;;;;;;;;;;;;;;;;4992373;28;19909;-48
2024/03/09 07:08:55;;;;;;;;;;;;;;;;;;4992095;28;19914;-48
2024/03/09 07:11:22;;;;;;;;;;;;;;;;;;4991988;28;19965;-46
2024/03/09 07:13:48;;;;;;;;;;;;;;;;;;4991794;28;19924;-46
2024/03/09 07:16:15;;;;;;;;;;;;;;;;;;4992184;28;20418;-46
2024/03/09 07:18:41;;;;;;;;;;;;;;;;;;4991931;28;19909;-47
2024/03/09 07:21:10;;;;;;;;;;;;;;;;;;4992176;28;19910;-45
2024/03/09 07:23:36;;;;;;;;;;;;;;;;;;4990844;28;19913;-45
2024/03/09 07:26:03;;;;;;;;;;;;;;;;;;4990468;28;19922;-46
2024/03/09 07:28:29;;;;;;;;;;;;;;;;;;4990965;28;20296;-50
2024/03/09 07:30:55;;;;;;;;;;;;;;;;;;4990886;28;19917;-49
2024/03/09 07:33:21;;;;;;;;;;;;;;;;;;4990407;28;19914;-46
2024/03/09 07:35:47;;;;;;;;;;;;;;;;;;4991609;28;20491;-46
2024/03/09 07:38:13;;;;;;;;;;;;;;;;;;4991640;28;19929;-49
2024/03/09 07:40:43;;;;;;;;;;;;;;;;;;4991866;28;19953;-48
2024/03/09 07:43:12;;;;;;;;;;;;;;;;;;4991657;28;19918;-46
2024/03/09 07:45:38;;;;;;;;;;;;;;;;;;4991266;28;20016;-48
2024/03/09 07:48:04;;;;;;;;;;;;;;;;;;4991441;28;20012;-48
2024/03/09 07:50:32;;;;;;;;;;;;;;;;;;4991746;28;19910;-46
2024/03/09 07:52:58;;;;;;;;;;;;;;;;;;4991785;28;19910;-46
2024/03/09 07:55:24;;;;;;;;;;;;;;;;;;4990939;28;19914;-46
2024/03/09 07:57:54;;;;;;;;;;;;;;;;;;4986678;28;19929;-47
2024/03/09 08:00:27;;;;;;;;;;;;;;;;;;4994944;28;19913;-48
2024/03/09 08:02:53;;;;;;;;;;;;;;;;;;4992625;28;20449;-46
2024/03/09 08:05:19;;;;;;;;;;;;;;;;;;5008346;28;20282;-48
2024/03/09 08:07:45;;;;;;;;;;;;;;;;;;4990881;28;19965;-48
2024/03/09 08:10:12;;;;;;;;;;;;;;;;;;4991077;28;19914;-44
2024/03/09 08:12:38;;;;;;;;;;;;;;;;;;4992587;28;19914;-45
2024/03/09 08:15:04;;;;;;;;;;;;;;;;;;4995758;28;19955;-45
2024/03/09 08:17:30;;;;;;;;;;;;;;;;;;5014594;28;19957;-44
2024/03/09 08:19:57;;;;;;;;;;;;;;;;;;4996811;28;20307;-46
2024/03/09 08:22:23;;;;;;;;;;;;;;;;;;4993589;28;19961;-44
2024/03/09 08:24:51;;;;;;;;;;;;;;;;;;4994752;28;20292;-44
2024/03/09 08:27:17;;;;;;;;;;;;;;;;;;4994184;28;19914;-46
2024/03/09 08:29:44;;;;;;;;;;;;;;;;;;4993984;28;19917;-45
2024/03/09 08:32:10;;;;;;;;;;;;;;;;;;4994081;28;19910;-46
2024/03/09 08:34:36;;;;;;;;;;;;;;;;;;4991421;28;19933;-46
2024/03/09 08:37:02;;;;;;;;;;;;;;;;;;4993885;28;19918;-46
2024/03/09 08:39:28;;;;;;;;;;;;;;;;;;4993686;28;19918;-45
2024/03/09 08:41:55;;;;;;;;;;;;;;;;;;4993996;28;19953;-45
2024/03/09 08:44:20;;;;;;;;;;;;;;;;;;4991617;28;20395;-45
2024/03/09 08:46:46;;;;;;;;;;;;;;;;;;4993523;28;19917;-45
2024/03/09 08:49:13;;;;;;;;;;;;;;;;;;4990972;28;19918;-45
2024/03/09 08:51:39;;;;;;;;;;;;;;;;;;4989866;28;19914;-45
2024/03/09 08:54:05;;;;;;;;;;;;;;;;;;4992682;28;19913;-46
2024/03/09 08:56:34;;;;;;;;;;;;;;;;;;4994269;28;19963;-46
2024/03/09 08:59:02;;;;;;;;;;;;;;;;;;4993945;28;19956;-46
2024/03/09 09:01:31;;;;;;;;;;;;;;;;;;4994220;28;20430;-46
2024/03/09 09:03:59;;;;;;;;;;;;;;;;;;4992814;28;19913;-45
2024/03/09 09:06:25;;;;;;;;;;;;;;;;;;4994270;28;19910;-45
2024/03/09 09:08:51;;;;;;;;;;;;;;;;;;4993904;28;19921;-46
2024/03/09 09:11:18;;;;;;;;;;;;;;;;;;4993864;28;19921;-45
2024/03/09 09:13:44;;;;;;;;;;;;;;;;;;4992887;28;19961;-45
2024/03/09 09:16:10;;;;;;;;;;;;;;;;;;4993159;28;20450;-45
2024/03/09 09:18:36;;;;;;;;;;;;;;;;;;4993642;28;19909;-46
2024/03/09 09:21:02;;;;;;;;;;;;;;;;;;4993390;28;20459;-45
2024/03/09 09:23:28;;;;;;;;;;;;;;;;;;4992866;28;19910;-46
2024/03/09 09:25:53;;;;;;;;;;;;;;;;;;4975744;28;19914;-45
2024/03/09 09:28:20;;;;;;;;;;;;;;;;;;4991859;28;19969;-45
2024/03/09 09:30:45;;;;;;;;;;;;;;;;;;4993475;28;19961;-46
2024/03/09 09:33:16;;;;;;;;;;;;;;;;;;4993509;28;20328;-49
2024/03/09 09:35:41;;;;;;;;;;;;;;;;;;4993291;28;19925;-45
2024/03/09 09:38:07;;;;;;;;;;;;;;;;;;4992760;28;19915;-50
2024/03/09 09:40:33;;;;;;;;;;;;;;;;;;4992776;28;19953;-50
2024/03/09 09:43:02;;;;;;;;;;;;;;;;;;4989412;28;19928;-48
2024/03/09 09:45:28;;;;;;;;;;;;;;;;;;4981166;28;20025;-46
2024/03/09 09:47:54;;;;;;;;;;;;;;;;;;4973932;28;19969;-47
2024/03/09 09:50:20;;;;;;;;;;;;;;;;;;4991585;28;19917;-46
2024/03/09 09:52:49;;;;;;;;;;;;;;;;;;4993247;28;20410;-46
2024/03/09 09:55:16;;;;;;;;;;;;;;;;;;4990567;28;19972;-47
2024/03/09 09:57:43;;;;;;;;;;;;;;;;;;4989531;28;19917;-48
2024/03/09 10:00:12;;;;;;;;;;;;;;;;;;4992079;28;19916;-47
2024/03/09 10:02:38;;;;;;;;;;;;;;;;;;4992088;28;20266;-48
2024/03/09 10:05:04;;;;;;;;;;;;;;;;;;4992119;28;20005;-50
2024/03/09 10:07:30;;;;;;;;;;;;;;;;;;4991990;28;19953;-49
2024/03/09 10:09:56;;;;;;;;;;;;;;;;;;4992233;28;19910;-46
2024/03/09 10:12:22;;;;;;;;;;;;;;;;;;4991963;28;20423;-47
2024/03/09 10:14:49;;;;;;;;;;;;;;;;;;4991909;28;19910;-48
2024/03/09 10:17:15;;;;;;;;;;;;;;;;;;4991741;28;20383;-46
2024/03/09 10:19:41;;;;;;;;;;;;;;;;;;4991844;28;19909;-49
2024/03/09 10:22:08;;;;;;;;;;;;;;;;;;4991830;28;19910;-46
2024/03/09 10:24:34;;;;;;;;;;;;;;;;;;4991913;28;19985;-46
2024/03/09 10:27:00;;;;;;;;;;;;;;;;;;4991753;28;20337;-45
2024/03/09 10:29:26;;;;;;;;;;;;;;;;;;4992073;28;19917;-47
2024/03/09 10:31:52;;;;;;;;;;;;;;;;;;4991625;28;19981;-46
2024/03/09 10:34:18;;;;;;;;;;;;;;;;;;4991590;28;19982;-46
2024/03/09 10:36:44;;;;;;;;;;;;;;;;;;4991319;28;19910;-47
2024/03/09 10:39:15;;;;;;;;;;;;;;;;;;4991652;28;20387;-46
2024/03/09 10:41:41;;;;;;;;;;;;;;;;;;4991620;28;19909;-45
2024/03/09 10:44:07;;;;;;;;;;;;;;;;;;4991549;28;19917;-46
2024/03/09 10:46:33;;;;;;;;;;;;;;;;;;4991238;28;19910;-45
2024/03/09 10:48:59;;;;;;;;;;;;;;;;;;4991427;28;19920;-46
2024/03/09 10:51:25;;;;;;;;;;;;;;;;;;4991298;28;19914;-49
2024/03/09 10:53:51;;;;;;;;;;;;;;;;;;4991529;28;19924;-47
2024/03/09 10:56:18;;;;;;;;;;;;;;;;;;4991128;28;19910;-45
2024/03/09 10:58:43;;;;;;;;;;;;;;;;;;4991295;28;19937;-49
2024/03/09 11:01:10;;;;;;;;;;;;;;;;;;4990981;28;19956;-46
2024/03/09 11:03:36;;;;;;;;;;;;;;;;;;4991424;28;20037;-46
2024/03/09 11:06:02;;;;;;;;;;;;;;;;;;4991531;28;20004;-47
2024/03/09 11:08:32;;;;;;;;;;;;;;;;;;4991228;28;19914;-46
2024/03/09 11:10:58;;;;;;;;;;;;;;;;;;4991619;28;19971;-47
2024/03/09 11:13:24;;;;;;;;;;;;;;;;;;4990286;28;20403;-47
2024/03/09 11:15:51;;;;;;;;;;;;;;;;;;4991424;28;19914;-49
2024/03/09 11:18:19;;;;;;;;;;;;;;;;;;4991894;28;19925;-49
2024/03/09 11:20:45;;;;;;;;;;;;;;;;;;4990939;28;20299;-46
2024/03/09 11:23:11;;;;;;;;;;;;;;;;;;4992017;28;19914;-50
2024/03/09 11:25:37;;;;;;;;;;;;;;;;;;4990965;28;19918;-48
2024/03/09 11:28:03;;;;;;;;;;;;;;;;;;4978674;28;19965;-47
2024/03/09 11:30:30;;;;;;;;;;;;;;;;;;4972764;28;19918;-47
2024/03/09 11:32:56;;;;;;;;;;;;;;;;;;4992021;28;19910;-47
2024/03/09 11:35:21;;;;;;;;;;;;;;;;;;4991082;28;19918;-48
2024/03/09 11:37:47;;;;;;;;;;;;;;;;;;4989841;28;20347;-45
2024/03/09 11:40:13;;;;;;;;;;;;;;;;;;4990570;28;19914;-43
2024/03/09 11:42:39;;;;;;;;;;;;;;;;;;4991622;28;19988;-44
2024/03/09 11:45:05;;;;;;;;;;;;;;;;;;4992360;28;19918;-45
2024/03/09 11:47:32;;;;;;;;;;;;;;;;;;4992601;28;19917;-45
2024/03/09 11:49:58;;;;;;;;;;;;;;;;;;4994061;28;19913;-44
2024/03/09 11:52:26;;;;;;;;;;;;;;;;;;4995228;28;19960;-48
2024/03/09 11:54:52;;;;;;;;;;;;;;;;;;4992820;28;19917;-48
2024/03/09 11:57:17;;;;;;;;;;;;;;;;;;4992007;28;19921;-48
2024/03/09 11:59:43;;;;;;;;;;;;;;;;;;4993388;28;20291;-44
2024/03/09 12:02:09;;;;;;;;;;;;;;;;;;4990878;28;19924;-44
2024/03/09 12:04:35;;;;;;;;;;;;;;;;;;4995239;28;19917;-45
2024/03/09 12:07:01;;;;;;;;;;;;;;;;;;4988666;28;19926;-46
2024/03/09 12:09:27;;;;;;;;;;;;;;;;;;4993542;28;20049;-46
2024/03/09 12:11:53;;;;;;;;;;;;;;;;;;4994108;28;19936;-46
2024/03/09 12:14:19;;;;;;;;;;;;;;;;;;4992247;28;19921;-46
2024/03/09 12:16:45;;;;;;;;;;;;;;;;;;4994617;28;19916;-46
2024/03/09 12:19:12;;;;;;;;;;;;;;;;;;4991938;28;19921;-48
2024/03/09 12:21:38;;;;;;;;;;;;;;;;;;4993328;28;19920;-49
2024/03/09 12:24:05;;;;;;;;;;;;;;;;;;4993305;28;19998;-45
2024/03/09 12:26:31;;;;;;;;;;;;;;;;;;4993604;28;19918;-46
2024/03/09 12:28:57;;;;;;;;;;;;;;;;;;4991181;28;20281;-49
2024/03/09 12:31:24;;;;;;;;;;;;;;;;;;4989970;28;20012;-46
2024/03/09 12:33:50;;;;;;;;;;;;;;;;;;4987584;28;20367;-47
2024/03/09 12:36:17;;;;;;;;;;;;;;;;;;4989735;28;20036;-46
2024/03/09 12:38:43;;;;;;;;;;;;;;;;;;4997273;28;19913;-47
2024/03/09 12:41:09;;;;;;;;;;;;;;;;;;4972531;28;19921;-49
2024/03/09 12:43:38;;;;;;;;;;;;;;;;;;4992485;28;19964;-49
2024/03/09 12:46:06;;;;;;;;;;;;;;;;;;4992195;28;20371;-49
2024/03/09 12:48:31;;;;;;;;;;;;;;;;;;4992171;28;20040;-45
2024/03/09 12:50:59;;;;;;;;;;;;;;;;;;4984072;28;20006;-45
2024/03/09 12:53:25;;;;;;;;;;;;;;;;;;4990148;28;19913;-47
2024/03/09 12:55:51;;;;;;;;;;;;;;;;;;4993027;28;19957;-49
2024/03/09 12:58:19;;;;;;;;;;;;;;;;;;4992973;28;20359;-46
2024/03/09 13:00:53;;;;;;;;;;;;;;;;;;4992276;28;19917;-46
2024/03/09 13:03:20;;;;;;;;;;;;;;;;;;4993294;28;20303;-46
2024/03/09 13:05:50;;;;;;;;;;;;;;;;;;4993392;28;19910;-45
2024/03/09 13:08:16;;;;;;;;;;;;;;;;;;4992619;28;19961;-46
2024/03/09 13:10:46;;;;;;;;;;;;;;;;;;4993088;28;19914;-46
2024/03/09 13:13:14;;;;;;;;;;;;;;;;;;4992871;28;20437;-45
2024/03/09 13:15:40;;;;;;;;;;;;;;;;;;4993136;28;20399;-48
2024/03/09 13:18:08;;;;;;;;;;;;;;;;;;4992967;28;19906;-46
2024/03/09 13:20:37;;;;;;;;;;;;;;;;;;4993057;28;19910;-46
2024/03/09 13:23:03;;;;;;;;;;;;;;;;;;4992894;28;19917;-45
2024/03/09 13:25:33;;;;;;;;;;;;;;;;;;4993048;28;19910;-44
2024/03/09 13:27:59;;;;;;;;;;;;;;;;;;4992653;28;19918;-44
2024/03/09 13:30:27;;;;;;;;;;;;;;;;;;4992714;28;19916;-44
2024/03/09 13:32:53;;;;;;;;;;;;;;;;;;4992592;28;19910;-44
2024/03/09 13:35:19;;;;;;;;;;;;;;;;;;4992749;28;19916;-44
2024/03/09 13:37:45;;;;;;;;;;;;;;;;;;4992669;28;19914;-45
2024/03/09 13:40:11;;;;;;;;;;;;;;;;;;4992526;28;20383;-45
2024/03/09 13:42:37;;;;;;;;;;;;;;;;;;4991792;28;19964;-44
2024/03/09 13:45:12;;;;;;;;;;;;;;;;;;4992697;28;20395;-44
2024/03/09 13:47:41;;;;;;;;;;;;;;;;;;4992407;28;19917;-44
2024/03/09 13:50:07;;;;;;;;;;;;;;;;;;4992797;28;19917;-43
2024/03/09 13:52:33;;;;;;;;;;;;;;;;;;4991169;28;19917;-47
2024/03/09 13:54:59;;;;;;;;;;;;;;;;;;4989086;28;20334;-48
2024/03/09 13:57:25;;;;;;;;;;;;;;;;;;4992036;28;20465;-46
2024/03/09 13:59:51;;;;;;;;;;;;;;;;;;4992052;28;19916;-48
2024/03/09 14:02:19;;;;;;;;;;;;;;;;;;4991851;28;20004;-48
2024/03/09 14:04:47;;;;;;;;;;;;;;;;;;4992050;28;19910;-45
2024/03/09 14:07:14;;;;;;;;;;;;;;;;;;4990005;28;19968;-46
2024/03/09 14:09:48;;;;;;;;;;;;;;;;;;4991806;28;19909;-48
2024/03/09 14:12:15;;;;;;;;;;;;;;;;;;4992024;28;20391;-45
2024/03/09 14:14:41;;;;;;;;;;;;;;;;;;4989762;28;20383;-49
2024/03/09 14:17:08;;;;;;;;;;;;;;;;;;4992489;28;19917;-48
2024/03/09 14:19:34;;;;;;;;;;;;;;;;;;4991027;28;19913;-45
2024/03/09 14:22:00;;;;;;;;;;;;;;;;;;4988542;28;20008;-48
2024/03/09 14:24:26;;;;;;;;;;;;;;;;;;4970392;28;20403;-47
2024/03/09 14:26:52;;;;;;;;;;;;;;;;;;4991118;28;20446;-45
2024/03/09 14:29:18;;;;;;;;;;;;;;;;;;4989265;28;19914;-47
2024/03/09 14:31:46;;;;;;;;;;;;;;;;;;4991058;28;19914;-48
2024/03/09 14:34:12;;;;;;;;;;;;;;;;;;4990938;28;19913;-45
2024/03/09 14:36:38;;;;;;;;;;;;;;;;;;4991263;28;19916;-48
2024/03/09 14:39:04;;;;;;;;;;;;;;;;;;4973262;28;19918;-46
2024/03/09 14:41:30;;;;;;;;;;;;;;;;;;4990491;28;20000;-47
2024/03/09 14:43:56;;;;;;;;;;;;;;;;;;4990744;28;19909;-48
2024/03/09 14:46:22;;;;;;;;;;;;;;;;;;4990382;28;19914;-48
2024/03/09 14:48:53;;;;;;;;;;;;;;;;;;4997791;28;19972;-47
2024/03/09 14:51:22;;;;;;;;;;;;;;;;;;4990627;28;20411;-47
2024/03/09 14:53:49;;;;;;;;;;;;;;;;;;4985925;28;19913;-48
2024/03/09 14:56:16;;;;;;;;;;;;;;;;;;4988296;28;19957;-45
2024/03/09 14:58:44;;;;;;;;;;;;;;;;;;4967203;28;20415;-48
2024/03/09 15:01:13;;;;;;;;;;;;;;;;;;4985994;28;19914;-44
2024/03/09 15:03:40;;;;;;;;;;;;;;;;;;4985460;28;21198;-45
2024/03/09 15:06:10;;;;;;;;;;;;;;;;;;4989954;28;20415;-47
2024/03/09 15:08:37;;;;;;;;;;;;;;;;;;4986860;28;19918;-48
2024/03/09 15:11:09;;;;;;;;;;;;;;;;;;4967360;28;19929;-49
2024/03/09 15:13:40;;;;;;;;;;;;;;;;;;4987609;28;19957;-44
2024/03/09 15:16:06;;;;;;;;;;;;;;;;;;4985505;28;19925;-45
2024/03/09 15:18:32;;;;;;;;;;;;;;;;;;4986431;28;19917;-44
2024/03/09 15:20:58;;;;;;;;;;;;;;;;;;4992498;28;19929;-44
2024/03/09 15:23:24;;;;;;;;;;;;;;;;;;4989700;28;19924;-44
2024/03/09 15:25:50;;;;;;;;;;;;;;;;;;4994091;28;19914;-44
2024/03/09 15:28:16;;;;;;;;;;;;;;;;;;5001397;28;19952;-46
2024/03/09 15:30:42;;;;;;;;;;;;;;;;;;4992048;28;20335;-46
2024/03/09 15:33:11;;;;;;;;;;;;;;;;;;4990925;28;19920;-45
2024/03/09 15:35:38;;;;;;;;;;;;;;;;;;4992251;28;19913;-45
2024/03/09 15:38:04;;;;;;;;;;;;;;;;;;4994454;28;19922;-46
2024/03/09 15:40:30;;;;;;;;;;;;;;;;;;4991216;28;20347;-48
2024/03/09 15:42:56;;;;;;;;;;;;;;;;;;4992282;28;19921;-46
2024/03/09 15:45:22;;;;;;;;;;;;;;;;;;4992277;28;19928;-46
2024/03/09 15:47:49;;;;;;;;;;;;;;;;;;4992469;28;19945;-46
2024/03/09 15:50:16;;;;;;;;;;;;;;;;;;4988743;28;19913;-46
2024/03/09 15:52:42;;;;;;;;;;;;;;;;;;4972870;28;20315;-45
2024/03/09 15:55:07;;;;;;;;;;;;;;;;;;4991490;28;19920;-45
2024/03/09 15:57:34;;;;;;;;;;;;;;;;;;4976139;28;19964;-45
2024/03/09 16:00:00;;;;;;;;;;;;;;;;;;4989459;28;19913;-45
2024/03/09 16:02:28;;;;;;;;;;;;;;;;;;4966554;28;19965;-45
2024/03/09 16:04:53;;;;;;;;;;;;;;;;;;4990467;28;19968;-44
2024/03/09 16:07:23;;;;;;;;;;;;;;;;;;4985609;28;19976;-44
2024/03/09 16:09:49;;;;;;;;;;;;;;;;;;4970720;28;20373;-46
2024/03/09 16:12:16;;;;;;;;;;;;;;;;;;4975902;28;20000;-45
2024/03/09 16:14:44;;;;;;;;;;;;;;;;;;4992894;28;21440;-45
2024/03/09 16:17:14;;;;;;;;;;;;;;;;;;4993743;28;19964;-45
2024/03/09 16:19:39;;;;;;;;;;;;;;;;;;4993359;28;19914;-47
2024/03/09 16:22:11;;;;;;;;;;;;;;;;;;4992741;28;20471;-48
2024/03/09 16:24:37;;;;;;;;;;;;;;;;;;4990971;28;19961;-48
2024/03/09 16:27:07;;;;;;;;;;;;;;;;;;4988697;28;19957;-49
2024/03/09 16:29:33;;;;;;;;;;;;;;;;;;4990258;28;19960;-47
2024/03/09 16:31:59;;;;;;;;;;;;;;;;;;4990105;28;20347;-45
2024/03/09 16:34:25;;;;;;;;;;;;;;;;;;4990420;28;19945;-48
2024/03/09 16:36:51;;;;;;;;;;;;;;;;;;4973438;28;19917;-46
2024/03/09 16:39:17;;;;;;;;;;;;;;;;;;4990597;28;19913;-48
2024/03/09 16:41:43;;;;;;;;;;;;;;;;;;4991158;28;20342;-49
2024/03/09 16:44:12;;;;;;;;;;;;;;;;;;4992361;28;19910;-48
2024/03/09 16:46:37;;;;;;;;;;;;;;;;;;4992040;28;19914;-46
2024/03/09 16:49:05;;;;;;;;;;;;;;;;;;4990977;28;19922;-45
2024/03/09 16:51:31;;;;;;;;;;;;;;;;;;4990329;28;19914;-48
2024/03/09 16:53:57;;;;;;;;;;;;;;;;;;4991005;28;19921;-45
2024/03/09 16:56:23;;;;;;;;;;;;;;;;;;4991734;28;20292;-45
2024/03/09 16:58:49;;;;;;;;;;;;;;;;;;4973480;28;19913;-45
2024/03/09 17:01:15;;;;;;;;;;;;;;;;;;4991327;28;19924;-46
2024/03/09 17:03:41;;;;;;;;;;;;;;;;;;4966562;28;19937;-49
2024/03/09 17:06:08;;;;;;;;;;;;;;;;;;4989846;28;20295;-44
2024/03/09 17:08:35;;;;;;;;;;;;;;;;;;4990418;28;19918;-48
2024/03/09 17:11:08;;;;;;;;;;;;;;;;;;4974112;28;20285;-45
2024/03/09 17:13:35;;;;;;;;;;;;;;;;;;4988025;28;20398;-46
2024/03/09 17:16:01;;;;;;;;;;;;;;;;;;4989790;28;19914;-48
2024/03/09 17:18:27;;;;;;;;;;;;;;;;;;4989890;28;20388;-47
2024/03/09 17:20:54;;;;;;;;;;;;;;;;;;4988541;28;19936;-45
2024/03/09 17:23:20;;;;;;;;;;;;;;;;;;4989577;28;19920;-48
2024/03/09 17:25:47;;;;;;;;;;;;;;;;;;4992268;28;19933;-44
2024/03/09 17:28:13;;;;;;;;;;;;;;;;;;4992496;28;19917;-46
2024/03/09 17:30:39;;;;;;;;;;;;;;;;;;4974104;28;19914;-47
2024/03/09 17:33:05;;;;;;;;;;;;;;;;;;4989115;28;19964;-48
2024/03/09 17:35:31;;;;;;;;;;;;;;;;;;4969922;28;20012;-47
2024/03/09 17:37:58;;;;;;;;;;;;;;;;;;4989524;28;19914;-44
2024/03/09 17:40:23;;;;;;;;;;;;;;;;;;4968988;28;20025;-43
2024/03/09 17:42:54;;;;;;;;;;;;;;;;;;4990925;28;20362;-44
2024/03/09 17:45:20;;;;;;;;;;;;;;;;;;4974141;28;19910;-43
2024/03/09 17:47:46;;;;;;;;;;;;;;;;;;4990387;28;19924;-44
2024/03/09 17:50:12;;;;;;;;;;;;;;;;;;4989229;28;19918;-44
2024/03/09 17:52:41;;;;;;;;;;;;;;;;;;4989272;28;19921;-44
2024/03/09 17:55:09;;;;;;;;;;;;;;;;;;4990869;28;19918;-44
2024/03/09 17:57:35;;;;;;;;;;;;;;;;;;4989631;28;19914;-44
2024/03/09 18:00:00;;;;;;;;;;;;;;;;;;4990909;28;19909;-44
2024/03/09 18:02:26;;;;;;;;;;;;;;;;;;4989686;28;19976;-45
2024/03/09 18:05:05;;;;;;;;;;;;;;;;;;5074393;27;20283;-46
2024/03/09 18:07:32;;;;;;;;;;;;;;;;;;5101000;28;19912;-45
2024/03/09 18:09:58;;;;;;;;;;;;;;;;;;5070225;28;19959;-47
2024/03/09 18:12:24;;;;;;;;;;;;;;;;;;5078787;28;19965;-44
2024/03/09 18:14:51;;;;;;;;;;;;;;;;;;5072532;28;20616;-46
2024/03/09 18:17:18;;;;;;;;;;;;;;;;;;5083175;28;20481;-44
2024/03/09 18:19:46;;;;;;;;;;;;;;;;;;5086387;28;19912;-46
2024/03/09 18:22:12;;;;;;;;;;;;;;;;;;5086096;28;20368;-48
2024/03/09 18:24:38;;;;;;;;;;;;;;;;;;5083202;28;19948;-44
2024/03/09 18:27:04;;;;;;;;;;;;;;;;;;5079064;28;20325;-45
2024/03/09 18:29:30;;;;;;;;;;;;;;;;;;5070632;28;19912;-44
2024/03/09 18:31:56;;;;;;;;;;;;;;;;;;5085674;28;19908;-44
2024/03/09 18:34:22;;;;;;;;;;;;;;;;;;5086754;28;19916;-44
2024/03/09 18:36:47;;;;;;;;;;;;;;;;;;5081492;28;20349;-44
2024/03/09 18:39:14;;;;;;;;;;;;;;;;;;5086056;28;19916;-44
2024/03/09 18:41:40;;;;;;;;;;;;;;;;;;5079140;28;19916;-44
2024/03/09 18:44:05;;;;;;;;;;;;;;;;;;5086193;28;19912;-46
2024/03/09 18:46:32;;;;;;;;;;;;;;;;;;5074267;28;19923;-44
2024/03/09 18:49:01;;;;;;;;;;;;;;;;;;5083211;28;19912;-43
2024/03/09 18:51:28;;;;;;;;;;;;;;;;;;5078814;28;20393;-46
2024/03/09 18:53:54;;;;;;;;;;;;;;;;;;5070769;28;19936;-44
2024/03/09 18:56:20;;;;;;;;;;;;;;;;;;5078443;28;20406;-46
2024/03/09 18:58:47;;;;;;;;;;;;;;;;;;5074286;28;20019;-45
2024/03/09 19:01:13;;;;;;;;;;;;;;;;;;5076555;28;19923;-45
2024/03/09 19:03:39;;;;;;;;;;;;;;;;;;5071937;28;19920;-44
2024/03/09 19:06:10;;;;;;;;;;;;;;;;;;5072154;28;19919;-44
2024/03/09 19:08:36;;;;;;;;;;;;;;;;;;5075865;28;19943;-44
2024/03/09 19:11:01;;;;;;;;;;;;;;;;;;5087622;28;19912;-44
2024/03/09 19:13:27;;;;;;;;;;;;;;;;;;5080745;28;20011;-44
2024/03/09 19:15:54;;;;;;;;;;;;;;;;;;5058900;28;19912;-46
2024/03/09 19:18:20;;;;;;;;;;;;;;;;;;5065025;28;20340;-44
2024/03/09 19:20:46;;;;;;;;;;;;;;;;;;5054779;28;19952;-45
2024/03/09 19:23:14;;;;;;;;;;;;;;;;;;5064751;28;20032;-44
2024/03/09 19:25:44;;;;;;;;;;;;;;;;;;5066340;28;19974;-44
2024/03/09 19:28:11;;;;;;;;;;;;;;;;;;5057711;28;19913;-44
2024/03/09 19:30:38;;;;;;;;;;;;;;;;;;5067742;28;19959;-45
2024/03/09 19:33:04;;;;;;;;;;;;;;;;;;5059454;28;19943;-44
2024/03/09 19:35:30;;;;;;;;;;;;;;;;;;5057839;28;19947;-45
2024/03/09 19:37:57;;;;;;;;;;;;;;;;;;5071637;28;20007;-49
2024/03/09 19:40:23;;;;;;;;;;;;;;;;;;5072649;28;19919;-45
2024/03/09 19:42:49;;;;;;;;;;;;;;;;;;5063677;28;19959;-44
2024/03/09 19:45:17;;;;;;;;;;;;;;;;;;5056392;28;19948;-45
2024/03/09 19:47:43;;;;;;;;;;;;;;;;;;5070345;28;20389;-45
2024/03/09 19:50:09;;;;;;;;;;;;;;;;;;5067825;28;20006;-45
2024/03/09 19:52:35;;;;;;;;;;;;;;;;;;5062624;28;19979;-45
2024/03/09 19:55:01;;;;;;;;;;;;;;;;;;5064814;28;20351;-44
2024/03/09 19:57:29;;;;;;;;;;;;;;;;;;5071000;28;19912;-44
2024/03/09 19:59:54;;;;;;;;;;;;;;;;;;5059550;28;19913;-44
2024/03/09 20:02:22;;;;;;;;;;;;;;;;;;5051483;28;19971;-45
2024/03/09 20:04:48;;;;;;;;;;;;;;;;;;5086445;28;19919;-45
2024/03/09 20:07:14;;;;;;;;;;;;;;;;;;5071904;28;19938;-44
2024/03/09 20:09:40;;;;;;;;;;;;;;;;;;5077479;28;20011;-46
2024/03/09 20:12:09;;;;;;;;;;;;;;;;;;5074915;28;20023;-43
2024/03/09 20:14:35;;;;;;;;;;;;;;;;;;5088310;28;20432;-44
2024/03/09 20:17:01;;;;;;;;;;;;;;;;;;5079443;28;20009;-44
2024/03/09 20:19:27;;;;;;;;;;;;;;;;;;5083000;28;19922;-44
2024/03/09 20:21:52;;;;;;;;;;;;;;;;;;5089633;28;19912;-44
2024/03/09 20:24:18;;;;;;;;;;;;;;;;;;5080266;28;19935;-44
2024/03/09 20:26:46;;;;;;;;;;;;;;;;;;5083458;28;20294;-44
2024/03/09 20:29:12;;;;;;;;;;;;;;;;;;5056167;28;19923;-44
2024/03/09 20:31:40;;;;;;;;;;;;;;;;;;5086544;28;19912;-44
2024/03/09 20:34:07;;;;;;;;;;;;;;;;;;5073330;28;19915;-45
2024/03/09 20:36:35;;;;;;;;;;;;;;;;;;5085493;28;19912;-45
2024/03/09 20:39:01;;;;;;;;;;;;;;;;;;5071223;28;19908;-46
2024/03/09 20:41:27;;;;;;;;;;;;;;;;;;5071042;28;19974;-45
2024/03/09 20:43:53;;;;;;;;;;;;;;;;;;5070842;28;19916;-45
2024/03/09 20:46:18;;;;;;;;;;;;;;;;;;5084814;28;20015;-45
2024/03/09 20:48:44;;;;;;;;;;;;;;;;;;5057861;28;20632;-44
2024/03/09 20:51:17;;;;;;;;;;;;;;;;;;5076483;28;19913;-45
2024/03/09 20:53:46;;;;;;;;;;;;;;;;;;5086799;28;19923;-45
2024/03/09 20:56:12;;;;;;;;;;;;;;;;;;5084485;28;19931;-45
2024/03/09 20:58:38;;;;;;;;;;;;;;;;;;5083807;28;19949;-44
2024/03/09 21:01:06;;;;;;;;;;;;;;;;;;5056273;28;19912;-44
2024/03/09 21:03:33;;;;;;;;;;;;;;;;;;5079681;28;19916;-45
2024/03/09 21:05:59;;;;;;;;;;;;;;;;;;5067888;28;19962;-44
2024/03/09 21:08:25;;;;;;;;;;;;;;;;;;5089762;28;20404;-44
2024/03/09 21:10:51;;;;;;;;;;;;;;;;;;5074675;28;19917;-44
2024/03/09 21:13:17;;;;;;;;;;;;;;;;;;5079077;28;20384;-44
2024/03/09 21:15:43;;;;;;;;;;;;;;;;;;5070195;28;19916;-45
2024/03/09 21:18:09;;;;;;;;;;;;;;;;;;5077617;28;20023;-44
2024/03/09 21:20:35;;;;;;;;;;;;;;;;;;5078185;28;19916;-45
2024/03/09 21:23:00;;;;;;;;;;;;;;;;;;5078582;28;19955;-44
2024/03/09 21:25:27;;;;;;;;;;;;;;;;;;5086375;28;19912;-44
2024/03/09 21:27:53;;;;;;;;;;;;;;;;;;5070346;28;19916;-45
2024/03/09 21:30:20;;;;;;;;;;;;;;;;;;5068113;28;19913;-45
2024/03/09 21:32:47;;;;;;;;;;;;;;;;;;5089202;28;19912;-44
2024/03/09 21:35:13;;;;;;;;;;;;;;;;;;5071712;28;19912;-46
2024/03/09 21:37:39;;;;;;;;;;;;;;;;;;5069669;28;19922;-45
2024/03/09 21:40:07;;;;;;;;;;;;;;;;;;5089110;28;19934;-45
2024/03/09 21:42:33;;;;;;;;;;;;;;;;;;5076445;28;19919;-45
2024/03/09 21:44:59;;;;;;;;;;;;;;;;;;5088282;28;20308;-44
2024/03/09 21:47:27;;;;;;;;;;;;;;;;;;5089148;28;20006;-44
2024/03/09 21:49:53;;;;;;;;;;;;;;;;;;5089567;28;19916;-46
2024/03/09 21:52:19;;;;;;;;;;;;;;;;;;5100001;28;19912;-46
2024/03/09 21:54:45;;;;;;;;;;;;;;;;;;5077080;28;19913;-44
2024/03/09 21:57:12;;;;;;;;;;;;;;;;;;5069421;28;19995;-44
2024/03/09 21:59:39;;;;;;;;;;;;;;;;;;5069275;28;19916;-44
2024/03/09 22:02:07;;;;;;;;;;;;;;;;;;5070219;28;19931;-44
2024/03/09 22:04:33;;;;;;;;;;;;;;;;;;5073384;28;19920;-45
2024/03/09 22:06:59;;;;;;;;;;;;;;;;;;5087687;28;19965;-44
2024/03/09 22:09:26;;;;;;;;;;;;;;;;;;5089624;28;19908;-44
2024/03/09 22:11:53;;;;;;;;;;;;;;;;;;5090174;28;20296;-45
2024/03/09 22:14:22;;;;;;;;;;;;;;;;;;5089983;28;19951;-45
2024/03/09 22:16:48;;;;;;;;;;;;;;;;;;5090507;28;19915;-45
2024/03/09 22:19:13;;;;;;;;;;;;;;;;;;5090278;28;19908;-44
2024/03/09 22:21:39;;;;;;;;;;;;;;;;;;5089726;28;19912;-45
2024/03/09 22:24:07;;;;;;;;;;;;;;;;;;5089822;28;19912;-44
2024/03/09 22:26:33;;;;;;;;;;;;;;;;;;5090860;28;19934;-44
2024/03/09 22:28:59;;;;;;;;;;;;;;;;;;5089826;28;20369;-44
2024/03/09 22:31:25;;;;;;;;;;;;;;;;;;5089813;28;19991;-44
2024/03/09 22:33:51;;;;;;;;;;;;;;;;;;5071764;28;19912;-44
2024/03/09 22:36:17;;;;;;;;;;;;;;;;;;5090392;28;19904;-44
2024/03/09 22:38:43;;;;;;;;;;;;;;;;;;5089474;28;19986;-44
2024/03/09 22:41:09;;;;;;;;;;;;;;;;;;5071665;28;20408;-44